createdAt,value
2019-03-25T00:00:45.332Z,5.30
2019-03-25T00:03:13.896Z,5.20
2019-03-25T00:05:42.400Z,5.10
2019-03-25T00:08:10.855Z,5.00
2019-03-25T00:10:39.411Z,5.00
2019-03-25T00:13:07.900Z,5.00
2019-03-25T00:15:36.594Z,5.00
2019-03-25T00:18:05.166Z,5.00
2019-03-25T00:20:33.627Z,5.00
2019-03-25T00:23:02.087Z,5.00
2019-03-25T00:25:30.574Z,4.90
2019-03-25T00:27:59.139Z,4.80
2019-03-25T00:30:27.698Z,4.80
2019-03-25T00:32:56.154Z,4.80
2019-03-25T00:35:24.751Z,4.80
2019-03-25T00:37:53.240Z,4.80
2019-03-25T00:40:21.740Z,4.70
2019-03-25T00:42:50.250Z,4.70
2019-03-25T00:45:18.734Z,4.60
2019-03-25T00:47:47.194Z,4.70
2019-03-25T00:50:15.674Z,4.70
2019-03-25T00:52:44.139Z,4.70
2019-03-25T00:55:12.762Z,4.70
2019-03-25T00:57:41.316Z,4.60
2019-03-25T01:00:10.235Z,4.50
2019-03-25T01:02:38.878Z,4.40
2019-03-25T01:05:07.974Z,4.30
2019-03-25T01:07:36.435Z,4.20
2019-03-25T01:10:06.859Z,4.10
2019-03-25T01:12:35.490Z,4.10
2019-03-25T01:15:05.863Z,4.00
2019-03-25T01:17:34.363Z,4.00
2019-03-25T01:20:03.635Z,4.00
2019-03-25T01:22:32.129Z,3.90
2019-03-25T01:25:02.113Z,3.90
2019-03-25T01:27:30.812Z,3.80
2019-03-25T01:29:59.352Z,3.70
2019-03-25T01:32:28.047Z,3.70
2019-03-25T01:34:56.540Z,3.70
2019-03-25T01:37:25.002Z,3.60
2019-03-25T01:39:53.485Z,3.50
2019-03-25T01:42:21.951Z,3.40
2019-03-25T01:44:50.430Z,3.40
2019-03-25T01:47:18.995Z,3.30
2019-03-25T01:49:47.543Z,3.30
2019-03-25T01:52:16.271Z,3.30
2019-03-25T01:54:44.958Z,3.30
2019-03-25T01:57:13.637Z,3.30
2019-03-25T01:59:42.424Z,3.30
2019-03-25T02:02:12.553Z,3.30
2019-03-25T02:04:41.439Z,3.20
2019-03-25T02:07:12.190Z,3.20
2019-03-25T02:09:40.647Z,3.20
2019-03-25T02:12:09.441Z,3.10
2019-03-25T02:14:38.094Z,3.00
2019-03-25T02:17:06.810Z,3.00
2019-03-25T02:19:35.701Z,2.90
2019-03-25T02:22:04.796Z,2.90
2019-03-25T02:24:33.583Z,2.80
2019-03-25T02:27:02.221Z,2.80
2019-03-25T02:29:30.864Z,2.80
2019-03-25T02:31:59.634Z,2.80
2019-03-25T02:34:28.529Z,2.70
2019-03-25T02:36:57.210Z,2.60
2019-03-25T02:39:26.104Z,2.60
2019-03-25T02:41:54.785Z,2.60
2019-03-25T02:44:23.445Z,2.60
2019-03-25T02:46:52.157Z,2.60
2019-03-25T02:49:20.868Z,2.60
2019-03-25T02:51:50.509Z,2.70
2019-03-25T02:54:19.242Z,2.70
2019-03-25T02:56:48.024Z,2.80
2019-03-25T02:59:16.717Z,3.00
2019-03-25T03:01:45.707Z,3.00
2019-03-25T03:04:14.411Z,3.00
2019-03-25T03:06:43.090Z,3.00
2019-03-25T03:09:11.782Z,3.00
2019-03-25T03:11:40.503Z,3.20
2019-03-25T03:14:09.242Z,3.30
2019-03-25T03:16:37.902Z,3.40
2019-03-25T03:19:06.586Z,3.40
2019-03-25T03:21:35.197Z,3.30
2019-03-25T03:24:04.035Z,3.20
2019-03-25T03:26:32.684Z,3.10
2019-03-25T03:29:01.442Z,3.10
2019-03-25T03:31:30.149Z,3.10
2019-03-25T03:33:58.825Z,3.00
2019-03-25T03:36:27.617Z,2.90
2019-03-25T03:38:56.324Z,2.90
2019-03-25T03:41:24.973Z,2.80
2019-03-25T03:43:53.759Z,2.80
2019-03-25T03:46:22.557Z,2.70
2019-03-25T03:48:51.204Z,2.70
2019-03-25T03:51:20.131Z,2.80
2019-03-25T03:53:48.915Z,2.80
2019-03-25T03:56:17.806Z,2.90
2019-03-25T03:58:46.505Z,3.00
2019-03-25T04:01:15.061Z,3.20
2019-03-25T04:03:43.596Z,3.30
2019-03-25T04:06:12.187Z,3.30
2019-03-25T04:08:40.755Z,3.30
2019-03-25T04:11:09.258Z,3.40
2019-03-25T04:13:37.824Z,3.50
2019-03-25T04:16:06.496Z,3.50
2019-03-25T04:18:35.093Z,3.60
2019-03-25T04:21:03.684Z,3.70
2019-03-25T04:23:32.235Z,3.70
2019-03-25T04:26:00.729Z,3.60
2019-03-25T04:28:29.267Z,3.40
2019-03-25T04:30:57.838Z,3.30
2019-03-25T04:33:26.399Z,3.20
2019-03-25T04:35:54.936Z,3.10
2019-03-25T04:38:23.498Z,3.00
2019-03-25T04:40:51.952Z,2.90
2019-03-25T04:43:20.447Z,2.90
2019-03-25T04:45:49.770Z,2.90
2019-03-25T04:48:18.370Z,2.70
2019-03-25T04:50:46.926Z,2.70
2019-03-25T04:53:15.393Z,2.70
2019-03-25T04:55:43.875Z,2.80
2019-03-25T04:58:12.334Z,2.80
2019-03-25T05:00:40.939Z,2.90
2019-03-25T05:03:09.503Z,3.10
2019-03-25T05:05:37.963Z,3.30
2019-03-25T05:08:06.495Z,3.40
2019-03-25T05:10:35.050Z,3.40
2019-03-25T05:13:03.584Z,3.50
2019-03-25T05:15:32.128Z,3.60
2019-03-25T05:18:00.683Z,3.60
2019-03-25T05:20:29.172Z,3.80
2019-03-25T05:22:57.731Z,3.90
2019-03-25T05:25:26.186Z,4.00
2019-03-25T05:27:54.671Z,4.00
2019-03-25T05:30:23.138Z,4.10
2019-03-25T05:32:51.735Z,4.10
2019-03-25T05:35:20.266Z,4.20
2019-03-25T05:37:48.735Z,4.20
2019-03-25T05:40:17.250Z,4.20
2019-03-25T05:42:45.835Z,4.30
2019-03-25T05:45:14.647Z,4.40
2019-03-25T05:47:43.166Z,4.50
2019-03-25T05:50:11.786Z,4.60
2019-03-25T05:52:40.246Z,4.70
2019-03-25T05:55:08.927Z,4.80
2019-03-25T05:57:37.416Z,4.90
2019-03-25T06:00:06.511Z,4.90
2019-03-25T06:02:34.962Z,5.00
2019-03-25T06:05:03.819Z,5.10
2019-03-25T06:07:32.302Z,5.20
2019-03-25T06:10:00.802Z,5.30
2019-03-25T06:12:29.263Z,5.40
2019-03-25T06:14:57.746Z,5.50
2019-03-25T06:17:26.210Z,5.60
2019-03-25T06:19:54.675Z,5.70
2019-03-25T06:22:23.231Z,5.80
2019-03-25T06:24:51.730Z,5.90
2019-03-25T06:27:20.290Z,6.00
2019-03-25T06:29:48.758Z,6.00
2019-03-25T06:32:17.248Z,6.20
2019-03-25T06:34:45.827Z,6.30
2019-03-25T06:37:14.458Z,6.40
2019-03-25T06:39:43.047Z,6.50
2019-03-25T06:42:11.586Z,6.50
2019-03-25T06:44:40.211Z,6.70
2019-03-25T06:47:08.759Z,6.80
2019-03-25T06:49:37.247Z,6.80
2019-03-25T06:52:06.011Z,6.80
2019-03-25T06:54:34.499Z,6.80
2019-03-25T06:57:02.954Z,6.80
2019-03-25T06:59:31.485Z,6.80
2019-03-25T07:01:59.982Z,6.80
2019-03-25T07:04:28.455Z,6.90
2019-03-25T07:06:56.977Z,7.00
2019-03-25T07:09:25.602Z,7.10
2019-03-25T07:11:54.092Z,7.20
2019-03-25T07:14:22.628Z,7.20
2019-03-25T07:16:51.183Z,7.20
2019-03-25T07:19:19.807Z,7.10
2019-03-25T07:21:48.350Z,7.10
2019-03-25T07:24:16.807Z,7.10
2019-03-25T07:26:45.278Z,7.30
2019-03-25T07:29:13.758Z,7.50
2019-03-25T07:31:42.394Z,7.50
2019-03-25T07:34:10.956Z,7.50
2019-03-25T07:36:39.419Z,7.30
2019-03-25T07:39:07.971Z,7.20
2019-03-25T07:41:36.434Z,7.00
2019-03-25T07:44:05.042Z,6.80
2019-03-25T07:46:33.530Z,6.80
2019-03-25T07:49:02.015Z,6.70
2019-03-25T07:51:30.550Z,6.70
2019-03-25T07:53:59.086Z,6.60
2019-03-25T07:56:27.735Z,6.60
2019-03-25T07:58:56.287Z,6.60
2019-03-25T08:01:24.750Z,6.70
2019-03-25T08:03:53.295Z,6.70
2019-03-25T08:06:21.794Z,6.80
2019-03-25T08:08:50.287Z,6.80
2019-03-25T08:11:18.882Z,7.00
2019-03-25T08:13:47.442Z,7.10
2019-03-25T08:16:15.980Z,7.30
2019-03-25T08:18:44.503Z,7.60
2019-03-25T08:21:13.015Z,8.10
2019-03-25T08:23:41.500Z,8.30
2019-03-25T08:26:09.962Z,8.40
2019-03-25T08:28:38.518Z,8.50
2019-03-25T08:31:07.075Z,9.40
2019-03-25T08:33:35.604Z,9.80
2019-03-25T08:36:04.442Z,9.80
2019-03-25T08:38:33.040Z,9.80
2019-03-25T08:41:01.529Z,9.80
2019-03-25T08:43:29.996Z,10.40
2019-03-25T08:45:58.562Z,11.50
2019-03-25T08:48:27.103Z,13.60
2019-03-25T08:50:55.660Z,15.00
2019-03-25T08:53:24.195Z,16.20
2019-03-25T08:55:52.664Z,17.60
2019-03-25T08:58:21.223Z,17.30
2019-03-25T09:00:49.755Z,16.80
2019-03-25T09:03:18.243Z,16.00
2019-03-25T09:05:46.712Z,15.00
2019-03-25T09:08:15.253Z,14.90
2019-03-25T09:10:43.741Z,14.90
2019-03-25T09:13:12.294Z,14.60
2019-03-25T09:15:40.759Z,15.60
2019-03-25T09:18:09.461Z,16.50
2019-03-25T09:20:37.994Z,17.50
2019-03-25T09:23:06.631Z,16.90
2019-03-25T09:25:35.283Z,15.00
2019-03-25T09:28:03.915Z,12.70
2019-03-25T09:30:51.964Z,11.00
2019-03-25T09:33:20.762Z,9.80
2019-03-25T09:35:49.588Z,9.60
2019-03-25T09:38:18.314Z,11.00
2019-03-25T09:40:46.971Z,12.80
2019-03-25T09:43:15.555Z,14.70
2019-03-25T09:45:44.087Z,16.60
2019-03-25T09:48:12.575Z,18.40
2019-03-25T09:50:41.030Z,19.40
2019-03-25T09:53:09.547Z,19.60
2019-03-25T09:55:38.038Z,19.80
2019-03-25T09:58:06.606Z,20.60
2019-03-25T10:00:35.138Z,21.60
2019-03-25T10:03:03.818Z,21.60
2019-03-25T10:05:32.693Z,21.90
2019-03-25T10:08:01.269Z,21.70
2019-03-25T10:10:29.837Z,20.40
2019-03-25T10:12:58.502Z,19.90
2019-03-25T10:15:26.993Z,18.70
2019-03-25T10:17:55.555Z,17.30
2019-03-25T10:20:24.088Z,15.70
2019-03-25T10:22:52.631Z,15.50
2019-03-25T10:25:21.198Z,16.40
2019-03-25T10:27:49.788Z,17.90
2019-03-25T10:30:18.715Z,19.30
2019-03-25T10:32:47.207Z,19.20
2019-03-25T10:35:15.913Z,18.80
2019-03-25T10:37:45.358Z,18.10
2019-03-25T10:40:14.491Z,17.20
2019-03-25T10:42:43.058Z,16.60
2019-03-25T10:45:13.954Z,16.80
2019-03-25T10:47:42.617Z,17.40
2019-03-25T10:50:11.909Z,17.80
2019-03-25T10:52:40.401Z,18.30
2019-03-25T10:55:09.485Z,18.90
2019-03-25T10:57:38.026Z,17.70
2019-03-25T11:00:08.531Z,16.50
2019-03-25T11:02:37.114Z,15.40
2019-03-25T11:05:07.544Z,14.60
2019-03-25T11:07:36.109Z,15.20
2019-03-25T11:10:07.007Z,16.70
2019-03-25T11:12:35.474Z,17.90
2019-03-25T11:15:06.538Z,18.90
2019-03-25T11:17:35.002Z,19.50
2019-03-25T11:20:05.503Z,19.80
2019-03-25T11:22:34.219Z,19.30
2019-03-25T11:25:02.806Z,18.20
2019-03-25T11:27:31.297Z,16.90
2019-03-25T11:29:59.944Z,15.70
2019-03-25T11:32:28.567Z,14.90
2019-03-25T11:34:57.058Z,14.10
2019-03-25T11:37:25.595Z,13.70
2019-03-25T11:39:54.107Z,13.40
2019-03-25T11:42:22.646Z,12.90
2019-03-25T11:44:51.246Z,12.50
2019-03-25T11:47:19.722Z,12.20
2019-03-25T11:49:48.227Z,11.90
2019-03-25T11:52:16.751Z,11.80
2019-03-25T11:54:45.218Z,11.50
2019-03-25T11:57:13.703Z,11.50
2019-03-25T11:59:42.171Z,11.90
2019-03-25T12:02:17.569Z,12.30
2019-03-25T12:04:40.861Z,12.40
2019-03-25T12:07:09.473Z,12.10
2019-03-25T12:09:37.975Z,12.30
2019-03-25T12:12:06.572Z,12.70
2019-03-25T12:14:35.034Z,12.80
2019-03-25T12:17:03.606Z,12.60
2019-03-25T12:19:32.070Z,12.00
2019-03-25T12:22:00.550Z,11.50
2019-03-25T12:24:29.108Z,10.90
2019-03-25T12:26:57.574Z,10.20
2019-03-25T12:29:30.477Z,9.60
2019-03-25T12:31:56.419Z,9.10
2019-03-25T12:34:25.013Z,8.70
2019-03-25T12:36:53.714Z,8.40
2019-03-25T12:39:22.341Z,8.30
2019-03-25T12:41:50.991Z,8.40
2019-03-25T12:44:19.610Z,8.50
2019-03-25T12:46:48.170Z,8.90
2019-03-25T12:49:16.626Z,9.50
2019-03-25T12:51:45.187Z,9.90
2019-03-25T12:54:13.767Z,10.10
2019-03-25T12:56:42.227Z,10.30
2019-03-25T12:59:10.971Z,10.40
2019-03-25T13:01:39.526Z,10.50
2019-03-25T13:04:08.019Z,10.70
2019-03-25T13:06:36.554Z,10.90
2019-03-25T13:09:06.974Z,11.40
2019-03-25T13:11:35.498Z,11.70
2019-03-25T13:14:04.216Z,12.00
2019-03-25T13:16:32.782Z,12.30
2019-03-25T13:19:01.251Z,12.80
2019-03-25T13:21:29.714Z,12.90
2019-03-25T13:23:58.355Z,13.20
2019-03-25T13:26:26.815Z,13.30
2019-03-25T13:29:02.100Z,13.30
2019-03-25T13:31:25.502Z,12.80
2019-03-25T13:33:53.967Z,12.40
2019-03-25T13:36:22.464Z,12.10
2019-03-25T13:38:51.026Z,12.00
2019-03-25T13:41:19.494Z,11.90
2019-03-25T13:43:48.126Z,12.10
2019-03-25T13:46:16.995Z,12.20
2019-03-25T13:48:45.462Z,12.50
2019-03-25T13:51:13.948Z,12.90
2019-03-25T13:53:42.414Z,13.20
2019-03-25T13:56:10.899Z,13.00
2019-03-25T13:58:39.362Z,12.60
2019-03-25T14:01:07.920Z,11.50
2019-03-25T14:03:36.395Z,10.20
2019-03-25T14:06:05.479Z,9.20
2019-03-25T14:08:34.015Z,8.50
2019-03-25T14:11:02.506Z,8.10
2019-03-25T14:13:31.075Z,7.90
2019-03-25T14:15:59.702Z,8.20
2019-03-25T14:18:28.195Z,8.50
2019-03-25T14:20:56.769Z,8.80
2019-03-25T14:23:25.262Z,9.00
2019-03-25T14:25:53.895Z,9.00
2019-03-25T14:28:22.471Z,9.20
2019-03-25T14:30:51.100Z,9.20
2019-03-25T14:33:19.666Z,9.20
2019-03-25T14:35:48.455Z,9.20
2019-03-25T14:38:17.095Z,9.30
2019-03-25T14:40:45.812Z,9.50
2019-03-25T14:43:14.341Z,9.50
2019-03-25T14:45:42.994Z,9.70
2019-03-25T14:48:11.455Z,9.80
2019-03-25T14:50:39.982Z,9.80
2019-03-25T14:53:08.682Z,9.90
2019-03-25T14:55:37.154Z,9.90
2019-03-25T14:58:05.783Z,10.00
2019-03-25T15:00:34.316Z,10.10
2019-03-25T15:03:02.810Z,10.00
2019-03-25T15:05:31.344Z,10.00
2019-03-25T15:07:59.902Z,9.90
2019-03-25T15:10:28.510Z,9.90
2019-03-25T15:12:57.310Z,9.90
2019-03-25T15:15:25.912Z,9.90
2019-03-25T15:17:54.441Z,10.00
2019-03-25T15:20:23.027Z,10.20
2019-03-25T15:22:51.623Z,10.20
2019-03-25T15:25:20.114Z,10.30
2019-03-25T15:27:48.578Z,10.30
2019-03-25T15:30:17.402Z,10.20
2019-03-25T15:32:45.905Z,10.00
2019-03-25T15:35:14.807Z,10.00
2019-03-25T15:37:43.275Z,9.90
2019-03-25T15:40:13.234Z,9.80
2019-03-25T15:42:42.175Z,9.60
2019-03-25T15:45:10.899Z,9.30
2019-03-25T15:47:39.996Z,9.20
2019-03-25T15:50:10.377Z,9.20
2019-03-25T15:52:39.389Z,9.40
2019-03-25T15:55:08.691Z,9.40
2019-03-25T15:57:39.583Z,9.50
2019-03-25T16:00:16.494Z,9.70
2019-03-25T16:02:45.319Z,9.70
2019-03-25T16:05:14.624Z,9.60
2019-03-25T16:07:43.157Z,9.50
2019-03-25T16:10:13.584Z,9.20
2019-03-25T16:12:42.134Z,9.00
2019-03-25T16:15:12.340Z,8.90
2019-03-25T16:17:43.159Z,8.80
2019-03-25T16:20:12.194Z,8.80
2019-03-25T16:22:40.746Z,8.70
2019-03-25T16:25:11.011Z,8.60
2019-03-25T16:27:39.468Z,8.60
2019-03-25T16:30:08.678Z,8.60
2019-03-25T16:32:37.254Z,8.60
2019-03-25T16:35:06.699Z,8.60
2019-03-25T16:37:35.230Z,8.40
2019-03-25T16:40:04.883Z,8.20
2019-03-25T16:42:33.347Z,8.00
2019-03-25T16:45:01.882Z,7.80
2019-03-25T16:47:30.454Z,7.70
2019-03-25T16:49:59.015Z,7.60
2019-03-25T16:52:27.559Z,7.60
2019-03-25T16:54:56.143Z,7.60
2019-03-25T16:57:24.666Z,7.80
2019-03-25T16:59:53.221Z,8.00
2019-03-25T17:02:21.951Z,8.10
2019-03-25T17:04:50.430Z,8.20
2019-03-25T17:07:19.073Z,8.10
2019-03-25T17:09:47.598Z,8.10
2019-03-25T17:12:16.091Z,8.00
2019-03-25T17:14:44.667Z,7.90
2019-03-25T17:17:13.294Z,7.90
2019-03-25T17:19:41.758Z,7.80
2019-03-25T17:22:10.250Z,7.80
2019-03-25T17:24:38.707Z,7.70
2019-03-25T17:27:07.210Z,7.50
2019-03-25T17:29:35.750Z,7.40
2019-03-25T17:32:04.278Z,7.20
2019-03-25T17:34:32.845Z,7.00
2019-03-25T17:37:01.342Z,7.00
2019-03-25T17:39:29.803Z,6.80
2019-03-25T17:41:58.330Z,6.80
2019-03-25T17:44:26.928Z,6.70
2019-03-25T17:46:55.447Z,6.70
2019-03-25T17:49:24.002Z,6.60
2019-03-25T17:51:52.502Z,6.60
2019-03-25T17:54:20.973Z,6.50
2019-03-25T17:56:49.542Z,6.50
2019-03-25T17:59:18.123Z,6.40
2019-03-25T18:01:46.651Z,6.40
2019-03-25T18:04:15.138Z,6.40
2019-03-25T18:06:43.766Z,6.40
2019-03-25T18:09:12.483Z,6.40
2019-03-25T18:11:40.942Z,6.40
2019-03-25T18:14:09.443Z,6.20
2019-03-25T18:16:37.975Z,6.10
2019-03-25T18:19:06.958Z,5.90
2019-03-25T18:21:35.497Z,5.80
2019-03-25T18:24:04.191Z,5.60
2019-03-25T18:26:32.651Z,5.40
2019-03-25T18:29:01.119Z,5.30
2019-03-25T18:31:29.691Z,5.20
2019-03-25T18:33:58.423Z,5.20
2019-03-25T18:36:26.982Z,5.10
2019-03-25T18:38:55.525Z,5.10
2019-03-25T18:41:24.087Z,5.10
2019-03-25T18:43:52.842Z,5.20
2019-03-25T18:46:21.689Z,5.30
2019-03-25T18:48:50.372Z,5.40
2019-03-25T18:51:18.987Z,5.50
2019-03-25T18:53:47.448Z,5.70
2019-03-25T18:56:16.142Z,5.80
2019-03-25T18:58:45.121Z,5.90
2019-03-25T19:01:13.726Z,5.90
2019-03-25T19:03:42.415Z,6.00
2019-03-25T19:06:10.873Z,6.00
2019-03-25T19:08:39.491Z,6.10
2019-03-25T19:11:08.062Z,6.20
2019-03-25T19:13:36.562Z,6.20
2019-03-25T19:16:05.108Z,6.20
2019-03-25T19:18:33.622Z,6.20
2019-03-25T19:21:02.214Z,6.20
2019-03-25T19:23:30.814Z,6.20
2019-03-25T19:25:59.295Z,6.10
2019-03-25T19:28:27.803Z,6.10
2019-03-25T19:30:56.374Z,6.10
2019-03-25T19:33:24.981Z,6.10
2019-03-25T19:35:53.531Z,6.10
2019-03-25T19:38:22.120Z,6.10
2019-03-25T19:40:51.539Z,6.20
2019-03-25T19:43:20.070Z,6.20
2019-03-25T19:45:48.563Z,6.20
2019-03-25T19:48:17.300Z,6.20
2019-03-25T19:50:45.914Z,6.30
2019-03-25T19:53:19.343Z,6.30
2019-03-25T19:55:44.714Z,6.20
2019-03-25T19:58:13.203Z,6.00
2019-03-25T20:00:41.882Z,5.80
2019-03-25T20:03:10.499Z,5.80
2019-03-25T20:05:39.157Z,5.70
2019-03-25T20:08:07.748Z,5.60
2019-03-25T20:10:37.874Z,5.50
2019-03-25T20:13:06.847Z,5.50
2019-03-25T20:15:45.410Z,5.40
2019-03-25T20:18:05.743Z,5.40
2019-03-25T20:20:34.242Z,5.30
2019-03-25T20:23:02.772Z,5.20
2019-03-25T20:25:31.450Z,5.10
2019-03-25T20:27:59.983Z,4.90
2019-03-25T20:30:28.580Z,4.90
2019-03-25T20:32:57.240Z,4.90
2019-03-25T20:35:25.921Z,5.10
2019-03-25T20:37:54.502Z,5.20
2019-03-25T20:40:22.969Z,5.50
2019-03-25T20:42:51.554Z,5.60
2019-03-25T20:45:20.098Z,5.60
2019-03-25T20:47:48.676Z,5.50
2019-03-25T20:50:17.376Z,5.40
2019-03-25T20:52:45.879Z,5.20
2019-03-25T20:55:14.535Z,5.00
2019-03-25T20:57:43.043Z,4.90
2019-03-25T21:00:12.787Z,4.70
2019-03-25T21:02:45.309Z,4.70
2019-03-25T21:05:11.919Z,4.70
2019-03-25T21:07:40.450Z,4.70
2019-03-25T21:10:09.426Z,4.70
2019-03-25T21:12:38.790Z,4.60
2019-03-25T21:15:08.981Z,4.50
2019-03-25T21:17:37.547Z,4.50
2019-03-25T21:20:07.845Z,4.50
2019-03-25T21:22:36.557Z,4.50
2019-03-25T21:25:07.008Z,4.60
2019-03-25T21:27:35.547Z,4.60
2019-03-25T21:30:05.853Z,4.60
2019-03-25T21:32:34.494Z,4.60
2019-03-25T21:35:03.112Z,4.60
2019-03-25T21:37:31.746Z,4.60
2019-03-25T21:40:00.449Z,4.50
2019-03-25T21:42:29.479Z,4.50
2019-03-25T21:44:58.002Z,4.70
2019-03-25T21:47:26.691Z,4.70
2019-03-25T21:49:55.473Z,4.70
2019-03-25T21:52:23.983Z,4.70
2019-03-25T21:54:52.535Z,4.70
2019-03-25T21:57:21.156Z,4.70
2019-03-25T21:59:49.695Z,4.60
2019-03-25T22:02:18.170Z,4.60
2019-03-25T22:04:46.654Z,4.60
2019-03-25T22:07:15.179Z,4.50
2019-03-25T22:09:44.014Z,4.40
2019-03-25T22:12:12.542Z,4.50
2019-03-25T22:14:41.179Z,4.50
2019-03-25T22:17:09.732Z,4.50
2019-03-25T22:19:38.202Z,4.60
2019-03-25T22:22:06.683Z,4.70
2019-03-25T22:24:35.140Z,4.80
2019-03-25T22:27:03.702Z,5.00
2019-03-25T22:29:32.165Z,5.10
2019-03-25T22:32:00.690Z,5.20
2019-03-25T22:34:29.175Z,5.30
2019-03-25T22:36:57.661Z,5.40
2019-03-25T22:39:26.114Z,5.40
2019-03-25T22:41:54.599Z,5.50
2019-03-25T22:44:23.058Z,5.50
2019-03-25T22:46:51.588Z,5.50
2019-03-25T22:49:20.139Z,5.60
2019-03-25T22:51:48.603Z,5.70
2019-03-25T22:54:17.101Z,5.80
2019-03-25T22:56:45.564Z,5.80
2019-03-25T22:59:14.094Z,5.80
2019-03-25T23:01:42.726Z,5.80
2019-03-25T23:04:11.279Z,5.90
2019-03-25T23:06:39.738Z,5.90
2019-03-25T23:09:08.942Z,5.90
2019-03-25T23:11:37.438Z,5.90
2019-03-25T23:14:05.894Z,5.90
2019-03-25T23:16:34.378Z,5.90
2019-03-25T23:19:02.838Z,5.90
2019-03-25T23:21:31.322Z,5.80
2019-03-25T23:23:59.783Z,5.80
2019-03-25T23:26:28.350Z,5.80
2019-03-25T23:28:56.812Z,5.70
2019-03-25T23:31:25.342Z,5.60
2019-03-25T23:33:53.827Z,5.60
2019-03-25T23:36:22.384Z,5.50
2019-03-25T23:38:50.934Z,5.30
2019-03-25T23:41:19.468Z,5.30
2019-03-25T23:43:47.950Z,5.30
2019-03-25T23:46:16.581Z,5.30
2019-03-25T23:48:45.142Z,5.20
2019-03-25T23:51:13.602Z,5.20
2019-03-25T23:53:42.086Z,5.20
2019-03-25T23:56:10.550Z,5.20
2019-03-25T23:58:39.010Z,5.20
